Time;durP1;ratioP1;P1;durP2;ratioP2;P2;SDS_P1;SDS_P2;PMS_P1;PMS_P2;Temp;Humidity;BMP_temperature;BMP_pressure;BME280_temperature;BME280_humidity;BME280_pressure;Samples;Min_cycle;Max_cycle;Signal;HPM_P1;HPM_P2
2022/01/15 00:01:01;;;;;;;;;;;;;;;-1.61;nan;102130.44;5041643;28;20011;-86
2022/01/15 00:03:27;;;;;;;;;;;;;;;-1.82;nan;102129.16;5045814;28;19941;-85
2022/01/15 00:05:54;;;;;;;;;;;;;;;-1.74;nan;102131.56;5049882;28;19988;-85
2022/01/15 00:08:19;;;;;;;;;;;;;;;-1.74;nan;102119.47;5048403;28;19972;-86
2022/01/15 00:10:44;;;;;;;;;;;;;;;-1.82;nan;102125.72;5045636;28;19929;-85
2022/01/15 00:13:18;;;;;;;;;;;;;;;-1.64;nan;102127.06;5042418;28;19921;-85
2022/01/15 00:15:50;;;;;;;;;;;;;;;-1.74;nan;102123.78;5035861;28;19928;-86
2022/01/15 00:18:17;;;;;;;;;;;;;;;-1.74;nan;102121.19;5043163;28;19920;-85
2022/01/15 00:20:42;;;;;;;;;;;;;;;-1.69;nan;102119.38;5040005;28;19917;-86
2022/01/15 00:23:07;;;;;;;;;;;;;;;-1.61;nan;102121.81;5033746;28;20000;-86
2022/01/15 00:25:33;;;;;;;;;;;;;;;-1.68;nan;102115.03;5038281;28;19925;-85
2022/01/15 00:27:59;;;;;;;;;;;;;;;-1.74;nan;102110.84;5025855;28;19925;-86
2022/01/15 00:30:24;;;;;;;;;;;;;;;-1.80;nan;102106.63;5036947;28;19948;-86
2022/01/15 00:32:52;;;;;;;;;;;;;;;-1.72;nan;102106.47;5041018;28;19927;-86
2022/01/15 00:35:19;;;;;;;;;;;;;;;-1.79;nan;102110.09;5027479;28;19948;-86
2022/01/15 00:37:45;;;;;;;;;;;;;;;-1.83;nan;102103.28;5029057;28;19953;-85
2022/01/15 00:40:14;;;;;;;;;;;;;;;-1.82;nan;102094.59;5029936;28;20005;-86
2022/01/15 00:42:40;;;;;;;;;;;;;;;-1.74;nan;102100.47;5021797;28;19917;-86
2022/01/15 00:45:08;;;;;;;;;;;;;;;-1.77;nan;102103.13;5033102;28;19921;-86
2022/01/15 00:47:33;;;;;;;;;;;;;;;-1.70;nan;102099.50;5033352;28;19949;-87
2022/01/15 00:50:00;;;;;;;;;;;;;;;-1.64;nan;102099.38;5039454;28;19928;-86
2022/01/15 00:52:25;;;;;;;;;;;;;;;-1.75;nan;102099.59;5037681;28;19921;-86
2022/01/15 00:54:50;;;;;;;;;;;;;;;-1.73;nan;102097.84;5034541;28;19917;-86
2022/01/15 00:57:18;;;;;;;;;;;;;;;-1.75;nan;102093.56;5012847;28;21562;-86
2022/01/15 00:59:43;;;;;;;;;;;;;;;-1.76;nan;102092.72;5019624;28;19976;-87
2022/01/15 01:02:08;;;;;;;;;;;;;;;-2.07;nan;102095.13;4976160;28;20292;-86
2022/01/15 01:04:33;;;;;;;;;;;;;;;-1.97;nan;102101.81;5005716;28;20394;-86
2022/01/15 01:06:58;;;;;;;;;;;;;;;-1.97;nan;102104.41;4992981;28;19932;-86
2022/01/15 01:09:29;;;;;;;;;;;;;;;-1.88;nan;102089.53;5004846;28;19975;-86
2022/01/15 01:11:58;;;;;;;;;;;;;;;-2.01;nan;102089.81;5009641;28;19917;-86
2022/01/15 01:20:08;;;;;;;;;;;;;;;-1.92;nan;102081.84;5015301;28;20345;-85
2022/01/15 01:22:53;;;;;;;;;;;;;;;-1.94;nan;102082.75;5020539;28;19968;-86
2022/01/15 01:25:20;;;;;;;;;;;;;;;-1.92;nan;102068.88;5029801;28;19917;-86
2022/01/15 01:27:49;;;;;;;;;;;;;;;-1.84;nan;102070.44;5039117;28;19940;-86
2022/01/15 01:30:29;;;;;;;;;;;;;;;-1.87;nan;102073.13;5022505;28;19929;-87
2022/01/15 01:33:02;;;;;;;;;;;;;;;-1.77;nan;102070.25;5038053;28;19925;-85
2022/01/15 01:35:42;;;;;;;;;;;;;;;-1.81;nan;102072.97;5037962;28;19971;-86
2022/01/15 01:38:14;;;;;;;;;;;;;;;-1.71;nan;102061.50;5035779;28;19921;-87
2022/01/15 01:40:43;;;;;;;;;;;;;;;-1.60;nan;102059.50;5028916;28;19967;-86
2022/01/15 01:43:57;;;;;;;;;;;;;;;-1.58;nan;102065.50;5023348;28;19924;-86
2022/01/15 01:46:12;;;;;;;;;;;;;;;-1.59;nan;102062.97;5011051;28;19921;-86
2022/01/15 01:48:37;;;;;;;;;;;;;;;-1.57;nan;102066.38;5015358;28;19929;-86
2022/01/15 01:51:06;;;;;;;;;;;;;;;-1.57;nan;102054.25;5014557;28;19922;-86
2022/01/15 01:53:31;;;;;;;;;;;;;;;-1.58;nan;102064.66;5013155;28;20012;-87
2022/01/15 01:55:57;;;;;;;;;;;;;;;-1.56;nan;102066.31;5012538;28;19956;-87
2022/01/15 01:58:22;;;;;;;;;;;;;;;-1.50;nan;102057.56;5030109;28;19924;-86
2022/01/15 02:00:47;;;;;;;;;;;;;;;-1.54;nan;102053.34;5039363;28;20375;-85
2022/01/15 02:03:13;;;;;;;;;;;;;;;-1.50;nan;102055.81;5034459;28;19925;-86
2022/01/15 02:05:41;;;;;;;;;;;;;;;-1.47;nan;102048.84;5035810;28;19913;-86
2022/01/15 02:08:06;;;;;;;;;;;;;;;-1.42;nan;102058.22;5037416;28;19939;-86
2022/01/15 02:10:32;;;;;;;;;;;;;;;-1.31;nan;102057.97;5036841;28;19922;-86
2022/01/15 02:12:57;;;;;;;;;;;;;;;-1.33;nan;102049.38;5037690;28;19918;-86
2022/01/15 02:15:23;;;;;;;;;;;;;;;-1.41;nan;102048.69;5036994;28;19921;-87
2022/01/15 02:17:48;;;;;;;;;;;;;;;-1.40;nan;102051.25;5027586;28;19913;-86
2022/01/15 02:25:48;;;;;;;;;;;;;;;-1.47;nan;102046.25;5038231;28;20016;-86
2022/01/15 02:28:14;;;;;;;;;;;;;;;-1.37;nan;102039.94;5023803;28;19913;-86
2022/01/15 02:30:39;;;;;;;;;;;;;;;-1.33;nan;102046.78;5035654;28;20012;-86
2022/01/15 02:33:05;;;;;;;;;;;;;;;-1.42;nan;102047.84;5020088;28;20231;-86
2022/01/15 02:35:30;;;;;;;;;;;;;;;-1.35;nan;102038.19;5017972;28;19914;-86
2022/01/15 02:38:07;;;;;;;;;;;;;;;-1.30;nan;102044.94;5018778;28;19913;-85
2022/01/15 02:40:35;;;;;;;;;;;;;;;-1.31;nan;102043.25;5026896;28;19913;-86
2022/01/15 02:43:21;;;;;;;;;;;;;;;-1.21;nan;102040.44;5024481;28;20032;-86
2022/01/15 02:45:55;;;;;;;;;;;;;;;-1.24;nan;102028.38;5013887;28;19953;-86
2022/01/15 02:48:21;;;;;;;;;;;;;;;-1.21;nan;102035.25;5023381;28;19928;-86
2022/01/15 02:50:46;;;;;;;;;;;;;;;-1.23;nan;102034.41;5030709;28;19932;-85
2022/01/15 02:53:13;;;;;;;;;;;;;;;-1.27;nan;102031.03;5021839;28;19921;-86
2022/01/15 02:55:44;;;;;;;;;;;;;;;-1.24;nan;102036.16;5020964;28;19928;-86
2022/01/15 02:58:09;;;;;;;;;;;;;;;-1.14;nan;102047.16;5030552;28;20327;-86
2022/01/15 03:00:35;;;;;;;;;;;;;;;-1.20;nan;102040.38;5031158;28;19918;-86
2022/01/15 03:03:00;;;;;;;;;;;;;;;-1.15;nan;102040.25;5024252;28;20029;-86
2022/01/15 03:05:25;;;;;;;;;;;;;;;-1.02;nan;102040.81;5026272;28;19917;-86
2022/01/15 03:07:51;;;;;;;;;;;;;;;-1.17;nan;102039.44;5031260;28;19921;-85
2022/01/15 03:10:16;;;;;;;;;;;;;;;-1.18;nan;102041.19;5019131;28;20342;-85
2022/01/15 03:12:41;;;;;;;;;;;;;;;-1.13;nan;102033.28;5011881;28;19921;-86
2022/01/15 03:15:08;;;;;;;;;;;;;;;-1.11;nan;102029.75;5032939;28;19925;-86
2022/01/15 03:17:33;;;;;;;;;;;;;;;-1.11;nan;102034.09;5032488;28;20367;-85
2022/01/15 03:19:58;;;;;;;;;;;;;;;-1.15;nan;102025.53;5033513;28;19925;-86
2022/01/15 03:22:24;;;;;;;;;;;;;;;-1.17;nan;102018.66;5028250;28;19933;-86
2022/01/15 03:24:49;;;;;;;;;;;;;;;-1.17;nan;102014.34;5013231;28;19925;-86
2022/01/15 03:27:15;;;;;;;;;;;;;;;-1.08;nan;102018.44;5022117;28;19922;-85
2022/01/15 03:29:40;;;;;;;;;;;;;;;-1.07;nan;102012.38;5018283;28;19921;-85
2022/01/15 03:32:06;;;;;;;;;;;;;;;-1.08;nan;102015.84;5037854;28;19924;-86
2022/01/15 03:34:31;;;;;;;;;;;;;;;-1.11;nan;102009.00;5029915;28;20303;-85
2022/01/15 03:36:56;;;;;;;;;;;;;;;-1.05;nan;101996.72;5032307;28;19921;-86
2022/01/15 03:39:22;;;;;;;;;;;;;;;-1.04;nan;101996.69;5026948;28;19952;-86
2022/01/15 03:41:47;;;;;;;;;;;;;;;-1.09;nan;101999.41;5028586;28;19921;-85
2022/01/15 03:44:12;;;;;;;;;;;;;;;-1.07;nan;101987.25;5033676;28;19917;-85
2022/01/15 03:46:37;;;;;;;;;;;;;;;-1.00;nan;101994.84;5034258;28;20383;-85
2022/01/15 03:49:03;;;;;;;;;;;;;;;-1.07;nan;101992.44;5019703;28;19921;-85
2022/01/15 03:51:28;;;;;;;;;;;;;;;-1.12;nan;101990.84;5015238;28;19929;-86
2022/01/15 03:53:53;;;;;;;;;;;;;;;-1.14;nan;101993.50;5020621;28;19975;-86
2022/01/15 03:56:18;;;;;;;;;;;;;;;-1.14;nan;101985.72;5013159;28;19979;-86
2022/01/15 03:58:43;;;;;;;;;;;;;;;-1.14;nan;101980.53;5025634;28;19921;-86
2022/01/15 04:01:09;;;;;;;;;;;;;;;-1.11;nan;101979.59;5027980;28;19917;-86
2022/01/15 04:03:34;;;;;;;;;;;;;;;-1.14;nan;101979.69;5031067;28;19925;-86
2022/01/15 04:05:59;;;;;;;;;;;;;;;-1.16;nan;101977.13;5029635;28;20000;-85
2022/01/15 04:08:24;;;;;;;;;;;;;;;-1.18;nan;101972.84;5012397;28;19976;-85
2022/01/15 04:10:49;;;;;;;;;;;;;;;-1.25;nan;101971.31;5012372;28;19949;-86
2022/01/15 04:13:19;;;;;;;;;;;;;;;-1.24;nan;101971.28;5030887;28;19937;-85
2022/01/15 04:15:44;;;;;;;;;;;;;;;-1.17;nan;101978.03;5020177;28;20030;-86
2022/01/15 04:18:10;;;;;;;;;;;;;;;-1.17;nan;101975.44;5025627;28;19921;-85
2022/01/15 04:20:35;;;;;;;;;;;;;;;-1.16;nan;101971.94;5024215;28;19968;-86
2022/01/15 04:23:00;;;;;;;;;;;;;;;-1.08;nan;101969.97;5026234;28;19922;-85
2022/01/15 04:25:25;;;;;;;;;;;;;;;-1.10;nan;101973.50;5012418;28;20375;-85
2022/01/15 04:27:51;;;;;;;;;;;;;;;-1.18;nan;101963.31;5017773;28;19917;-86
2022/01/15 04:30:17;;;;;;;;;;;;;;;-1.15;nan;101967.56;5030015;28;20306;-86
2022/01/15 04:32:42;;;;;;;;;;;;;;;-1.19;nan;101973.72;5031800;28;19921;-86
2022/01/15 04:35:08;;;;;;;;;;;;;;;-1.21;nan;101971.19;5031085;28;20007;-85
2022/01/15 04:37:45;;;;;;;;;;;;;;;-1.15;nan;101970.16;5028115;28;19936;-86
2022/01/15 04:40:10;;;;;;;;;;;;;;;-1.21;nan;101966.00;5017730;28;20011;-86
2022/01/15 04:42:35;;;;;;;;;;;;;;;-1.22;nan;101964.28;5019174;28;19953;-86
2022/01/15 04:45:03;;;;;;;;;;;;;;;-1.22;nan;101964.28;5033077;28;19921;-86
2022/01/15 04:47:28;;;;;;;;;;;;;;;-1.24;nan;101966.09;5026329;28;20005;-86
2022/01/15 04:49:55;;;;;;;;;;;;;;;-1.28;nan;101967.06;5035063;28;19964;-85
2022/01/15 04:52:21;;;;;;;;;;;;;;;-1.32;nan;101961.09;5035602;28;20016;-86
2022/01/15 04:54:46;;;;;;;;;;;;;;;-1.22;nan;101971.22;5019218;28;19925;-86
2022/01/15 04:57:11;;;;;;;;;;;;;;;-1.26;nan;101965.28;5025370;28;19922;-85
2022/01/15 04:59:36;;;;;;;;;;;;;;;-1.20;nan;101965.09;5044425;28;19923;-86
2022/01/15 05:02:02;;;;;;;;;;;;;;;-1.21;nan;101966.00;5031291;28;19943;-87
2022/01/15 05:04:27;;;;;;;;;;;;;;;-1.21;nan;101968.59;5012732;28;20015;-85
2022/01/15 05:06:52;;;;;;;;;;;;;;;-1.16;nan;101971.06;5012744;28;19921;-85
2022/01/15 05:09:18;;;;;;;;;;;;;;;-1.12;nan;101970.09;5010702;28;19917;-85
2022/01/15 05:11:49;;;;;;;;;;;;;;;-1.16;nan;101968.47;5012278;28;19922;-86
2022/01/15 05:14:15;;;;;;;;;;;;;;;-1.11;nan;101970.06;5023330;28;20024;-85
2022/01/15 05:16:40;;;;;;;;;;;;;;;-1.11;nan;101966.63;5028324;28;19956;-85
2022/01/15 05:19:06;;;;;;;;;;;;;;;-1.15;nan;101971.03;5030650;28;20522;-86
2022/01/15 05:21:31;;;;;;;;;;;;;;;-1.17;nan;101966.75;5030281;28;19956;-85
2022/01/15 05:23:56;;;;;;;;;;;;;;;-1.26;nan;101954.91;5029452;28;19921;-86
2022/01/15 05:26:22;;;;;;;;;;;;;;;-1.35;nan;101955.13;5029957;28;19925;-86
2022/01/15 05:28:47;;;;;;;;;;;;;;;-1.36;nan;101959.50;5023876;28;19921;-85
2022/01/15 05:31:12;;;;;;;;;;;;;;;-1.35;nan;101952.53;5030893;28;19953;-86
2022/01/15 05:33:37;;;;;;;;;;;;;;;-1.43;nan;101951.88;5031355;28;20429;-85
2022/01/15 05:36:02;;;;;;;;;;;;;;;-1.40;nan;101952.66;5029958;28;19971;-85
2022/01/15 05:38:28;;;;;;;;;;;;;;;-1.46;nan;101951.97;5031242;28;20079;-86
2022/01/15 05:40:53;;;;;;;;;;;;;;;-1.48;nan;101951.16;5016796;28;19922;-86
2022/01/15 05:43:18;;;;;;;;;;;;;;;-1.48;nan;101945.97;5025850;28;19925;-85
2022/01/15 05:45:43;;;;;;;;;;;;;;;-1.46;nan;101939.00;5030220;28;19917;-85
2022/01/15 05:48:08;;;;;;;;;;;;;;;-1.46;nan;101934.66;5028608;28;19925;-86
2022/01/15 05:50:34;;;;;;;;;;;;;;;-1.50;nan;101931.31;5030084;28;19925;-85
2022/01/15 05:52:59;;;;;;;;;;;;;;;-1.56;nan;101925.41;5029595;28;20027;-85
2022/01/15 05:55:24;;;;;;;;;;;;;;;-1.55;nan;101927.09;5028533;28;19928;-85
2022/01/15 05:57:49;;;;;;;;;;;;;;;-1.62;nan;101926.44;5028994;28;20641;-85
2022/01/15 06:00:15;;;;;;;;;;;;;;;-1.70;nan;101923.16;5029334;28;19925;-84
2022/01/15 06:02:40;;;;;;;;;;;;;;;-1.78;nan;101922.53;5029320;28;19932;-85
2022/01/15 06:05:05;;;;;;;;;;;;;;;-1.77;nan;101912.09;5030397;28;19928;-85
2022/01/15 06:07:31;;;;;;;;;;;;;;;-1.77;nan;101919.88;5029720;28;19967;-86
2022/01/15 06:09:56;;;;;;;;;;;;;;;-1.86;nan;101916.66;5025867;28;19917;-85
2022/01/15 06:12:28;;;;;;;;;;;;;;;-1.92;nan;101917.66;5027060;28;20011;-86
2022/01/15 06:14:53;;;;;;;;;;;;;;;-1.94;nan;101914.25;5030488;28;19921;-85
2022/01/15 06:17:18;;;;;;;;;;;;;;;-1.99;nan;101911.78;5024911;28;19925;-85
2022/01/15 06:19:44;;;;;;;;;;;;;;;-2.03;nan;101915.31;5027751;28;19952;-86
2022/01/15 06:22:09;;;;;;;;;;;;;;;-2.11;nan;101917.25;5028671;28;19984;-85
2022/01/15 06:24:34;;;;;;;;;;;;;;;-2.07;nan;101908.53;5033854;28;20371;-85
2022/01/15 06:26:59;;;;;;;;;;;;;;;-2.01;nan;101917.88;5032505;28;19936;-86
2022/01/15 06:29:24;;;;;;;;;;;;;;;-2.03;nan;101915.31;5031082;28;19921;-85
2022/01/15 06:31:50;;;;;;;;;;;;;;;-2.05;nan;101924.91;5027222;28;20335;-85
2022/01/15 06:34:15;;;;;;;;;;;;;;;-1.96;nan;101919.47;5029319;28;19922;-85
2022/01/15 06:36:40;;;;;;;;;;;;;;;-1.89;nan;101916.75;5028486;28;19921;-85
2022/01/15 06:39:05;;;;;;;;;;;;;;;-1.84;nan;101913.13;5029805;28;19927;-86
2022/01/15 06:41:31;;;;;;;;;;;;;;;-1.85;nan;101924.41;5027546;28;19929;-86
2022/01/15 06:43:56;;;;;;;;;;;;;;;-1.92;nan;101910.72;5030370;28;19922;-86
2022/01/15 06:46:21;;;;;;;;;;;;;;;-1.87;nan;101918.41;5031677;28;19940;-86
2022/01/15 06:48:46;;;;;;;;;;;;;;;-1.87;nan;101925.34;5026698;28;20069;-86
2022/01/15 06:51:12;;;;;;;;;;;;;;;-1.87;nan;101923.59;5031498;28;19921;-86
2022/01/15 06:53:37;;;;;;;;;;;;;;;-1.84;nan;101928.69;5030423;28;19932;-85
2022/01/15 06:56:02;;;;;;;;;;;;;;;-1.77;nan;101935.44;5033213;28;20346;-86
2022/01/15 06:58:28;;;;;;;;;;;;;;;-1.74;nan;101932.78;5031316;28;19949;-86
2022/01/15 07:00:53;;;;;;;;;;;;;;;-1.73;nan;101934.47;5032410;28;20225;-85
2022/01/15 07:03:18;;;;;;;;;;;;;;;-1.74;nan;101935.38;5033041;28;19931;-86
2022/01/15 07:05:43;;;;;;;;;;;;;;;-1.71;nan;101935.28;5033539;28;19920;-86
2022/01/15 07:08:08;;;;;;;;;;;;;;;-1.68;nan;101939.53;5033951;28;19978;-86
2022/01/15 07:10:34;;;;;;;;;;;;;;;-1.60;nan;101936.75;5028469;28;19921;-86
2022/01/15 07:13:00;;;;;;;;;;;;;;;-1.51;nan;101932.16;5023314;28;19925;-85
2022/01/15 07:15:25;;;;;;;;;;;;;;;-1.45;nan;101926.00;5032019;28;19921;-85
2022/01/15 07:17:50;;;;;;;;;;;;;;;-1.42;nan;101935.44;5031370;28;19928;-86
2022/01/15 07:20:17;;;;;;;;;;;;;;;-1.43;nan;101937.19;5032642;28;20110;-86
2022/01/15 07:22:42;;;;;;;;;;;;;;;-1.44;nan;101932.03;5033094;28;19925;-86
2022/01/15 07:25:08;;;;;;;;;;;;;;;-1.36;nan;101930.94;5029214;28;20040;-85
2022/01/15 07:27:33;;;;;;;;;;;;;;;-1.35;nan;101934.38;5026994;28;20326;-86
2022/01/15 07:30:00;;;;;;;;;;;;;;;-1.35;nan;101934.38;5031927;28;19921;-86
2022/01/15 07:32:26;;;;;;;;;;;;;;;-1.36;nan;101920.56;5019453;28;20387;-86
2022/01/15 07:34:51;;;;;;;;;;;;;;;-1.36;nan;101922.28;5020943;28;20016;-86
2022/01/15 07:37:16;;;;;;;;;;;;;;;-1.33;nan;101927.41;5011997;28;20025;-85
2022/01/15 07:39:42;;;;;;;;;;;;;;;-1.36;nan;101923.16;5015572;28;19928;-86
2022/01/15 07:42:08;;;;;;;;;;;;;;;-1.36;nan;101920.56;5031967;28;19917;-86
2022/01/15 07:44:33;;;;;;;;;;;;;;;-1.27;nan;101926.38;5033216;28;19917;-86
2022/01/15 07:46:58;;;;;;;;;;;;;;;-1.26;nan;101931.53;5031122;28;19956;-85
2022/01/15 07:49:24;;;;;;;;;;;;;;;-1.23;nan;101923.66;5030512;28;19984;-85
2022/01/15 07:51:49;;;;;;;;;;;;;;;-1.14;nan;101918.22;5033001;28;20301;-85
2022/01/15 07:54:14;;;;;;;;;;;;;;;-1.08;nan;101931.03;5030222;28;19937;-86
2022/01/15 07:56:39;;;;;;;;;;;;;;;-0.98;nan;101922.97;5031220;28;20424;-85
2022/01/15 07:59:05;;;;;;;;;;;;;;;-0.98;nan;101928.16;5020166;28;19991;-86
2022/01/15 08:01:30;;;;;;;;;;;;;;;-1.01;nan;101925.66;5023119;28;20433;-86
2022/01/15 08:03:55;;;;;;;;;;;;;;;-0.97;nan;101925.53;5030634;28;20337;-85
2022/01/15 08:06:20;;;;;;;;;;;;;;;-0.95;nan;101918.56;5018158;28;19936;-85
2022/01/15 08:08:46;;;;;;;;;;;;;;;-0.86;nan;101913.13;5026575;28;20394;-86
2022/01/15 08:11:11;;;;;;;;;;;;;;;-0.83;nan;101917.38;5028214;28;19931;-86
2022/01/15 08:13:36;;;;;;;;;;;;;;;-0.83;nan;101913.88;5032698;28;19925;-85
2022/01/15 08:16:02;;;;;;;;;;;;;;;-0.79;nan;101920.72;5024022;28;19922;-86
2022/01/15 08:18:27;;;;;;;;;;;;;;;-0.70;nan;101920.44;5027468;28;19928;-86
2022/01/15 08:20:53;;;;;;;;;;;;;;;-0.67;nan;101918.63;5016454;28;19918;-84
2022/01/15 08:23:18;;;;;;;;;;;;;;;-0.59;nan;101914.94;5022965;28;20399;-86
2022/01/15 08:25:43;;;;;;;;;;;;;;;-0.57;nan;101913.13;5017928;28;19921;-86
2022/01/15 08:28:08;;;;;;;;;;;;;;;-0.55;nan;101916.53;5031395;28;19925;-86
2022/01/15 08:30:34;;;;;;;;;;;;;;;-0.49;nan;101921.56;5031055;28;20007;-85
2022/01/15 08:32:59;;;;;;;;;;;;;;;-0.44;nan;101917.91;5031885;28;19924;-85
2022/01/15 08:35:25;;;;;;;;;;;;;;;-0.35;nan;101921.16;5032056;28;19967;-85
2022/01/15 08:37:50;;;;;;;;;;;;;;;-0.34;nan;101915.03;5026868;28;19924;-85
2022/01/15 08:40:16;;;;;;;;;;;;;;;-0.26;nan;101919.09;5035249;28;19921;-86
2022/01/15 08:42:42;;;;;;;;;;;;;;;-0.34;nan;101913.28;5025304;28;19921;-86
2022/01/15 08:45:08;;;;;;;;;;;;;;;-0.29;nan;101910.53;5032170;28;19963;-86
2022/01/15 08:47:33;;;;;;;;;;;;;;;-0.30;nan;101908.84;5025340;28;19967;-86
2022/01/15 08:50:00;;;;;;;;;;;;;;;-0.31;nan;101908.00;5031936;28;19921;-86
2022/01/15 08:52:25;;;;;;;;;;;;;;;-0.27;nan;101917.38;5023605;28;19930;-86
2022/01/15 08:54:50;;;;;;;;;;;;;;;-0.18;nan;101910.22;5015827;28;19921;-85
2022/01/15 08:57:15;;;;;;;;;;;;;;;-0.21;nan;101898.16;5047334;28;19921;-86
2022/01/15 08:59:41;;;;;;;;;;;;;;;-0.09;nan;101907.31;5029656;28;19929;-86
2022/01/15 09:02:07;;;;;;;;;;;;;;;-0.08;nan;101906.41;5031627;28;20371;-86
2022/01/15 09:04:32;;;;;;;;;;;;;;;-0.13;nan;101900.50;5045075;28;19917;-86
2022/01/15 09:06:57;;;;;;;;;;;;;;;-0.10;nan;101903.84;5043414;28;20271;-85
2022/01/15 09:09:22;;;;;;;;;;;;;;;-0.09;nan;101902.97;5045084;28;19996;-85
2022/01/15 09:11:48;;;;;;;;;;;;;;;0.00;nan;101904.44;5032856;28;19932;-84
2022/01/15 09:14:13;;;;;;;;;;;;;;;0.08;nan;101906.78;5038017;28;19921;-85
2022/01/15 09:16:38;;;;;;;;;;;;;;;0.01;nan;101906.13;5031426;28;19921;-85
2022/01/15 09:19:04;;;;;;;;;;;;;;;0.03;nan;101906.09;5028371;28;20307;-85
2022/01/15 09:21:29;;;;;;;;;;;;;;;0.09;nan;101909.31;5033277;28;20383;-86
2022/01/15 09:23:55;;;;;;;;;;;;;;;0.18;nan;101911.59;5031312;28;20010;-85
2022/01/15 09:26:45;;;;;;;;;;;;;;;0.20;nan;101907.22;5016456;28;19927;-85
2022/01/15 09:31:52;;;;;;;;;;;;;;;0.23;nan;101906.25;5017842;28;20071;-86
2022/01/15 09:34:17;;;;;;;;;;;;;;;0.22;nan;101898.53;5014197;28;19953;-84
2022/01/15 09:36:42;;;;;;;;;;;;;;;0.29;nan;101894.81;5012690;28;20061;-86
2022/01/15 09:39:07;;;;;;;;;;;;;;;0.40;nan;101888.31;5011979;28;19941;-85
2022/01/15 09:41:33;;;;;;;;;;;;;;;0.42;nan;101898.69;5026440;28;20378;-85
2022/01/15 09:43:59;;;;;;;;;;;;;;;0.40;nan;101890.06;5030873;28;20143;-85
2022/01/15 09:46:24;;;;;;;;;;;;;;;0.38;nan;101886.66;5028254;28;19930;-85
2022/01/15 09:48:50;;;;;;;;;;;;;;;0.46;nan;101883.81;5013152;28;19940;-85
2022/01/15 09:51:15;;;;;;;;;;;;;;;0.55;nan;101879.16;5029680;28;19921;-85
2022/01/15 09:53:41;;;;;;;;;;;;;;;0.71;nan;101884.63;5031704;28;19922;-85
2022/01/15 09:56:07;;;;;;;;;;;;;;;0.75;nan;101874.97;5031247;28;19970;-86
2022/01/15 09:58:32;;;;;;;;;;;;;;;0.81;nan;101869.53;5030198;28;19944;-85
2022/01/15 10:00:57;;;;;;;;;;;;;;;0.76;nan;101871.44;5024953;28;19925;-86
2022/01/15 10:03:22;;;;;;;;;;;;;;;0.76;nan;101861.03;5011411;28;19917;-85
2022/01/15 10:05:49;;;;;;;;;;;;;;;0.73;nan;101855.94;5029730;28;19921;-85
2022/01/15 10:08:20;;;;;;;;;;;;;;;0.73;nan;101866.38;5030782;28;19921;-85
2022/01/15 10:10:49;;;;;;;;;;;;;;;0.76;nan;101864.50;5016134;28;19930;-86
2022/01/15 10:13:14;;;;;;;;;;;;;;;0.76;nan;101855.84;5029654;28;20022;-85
2022/01/15 10:15:41;;;;;;;;;;;;;;;0.89;nan;101858.84;5016654;28;19961;-86
2022/01/15 10:18:24;;;;;;;;;;;;;;;1.03;nan;101853.97;5012817;28;19941;-85
2022/01/15 10:20:49;;;;;;;;;;;;;;;1.06;nan;101852.09;5018623;28;19933;-86
2022/01/15 10:23:19;;;;;;;;;;;;;;;1.19;nan;101856.84;5014382;28;20298;-85
2022/01/15 10:25:45;;;;;;;;;;;;;;;1.18;nan;101849.94;5023902;28;19976;-86
2022/01/15 10:28:10;;;;;;;;;;;;;;;0.98;nan;101856.75;5022592;28;19960;-85
2022/01/15 10:30:36;;;;;;;;;;;;;;;1.13;nan;101855.31;5028766;28;19951;-87
2022/01/15 10:33:01;;;;;;;;;;;;;;;1.17;nan;101856.91;5021088;28;19925;-86
2022/01/15 10:35:30;;;;;;;;;;;;;;;1.08;nan;101857.25;5019100;28;20423;-85
2022/01/15 10:37:57;;;;;;;;;;;;;;;0.92;nan;101854.38;5030569;28;19928;-86
2022/01/15 10:40:25;;;;;;;;;;;;;;;0.98;nan;101845.50;5030697;28;20312;-86
2022/01/15 10:42:55;;;;;;;;;;;;;;;1.12;nan;101839.75;5034170;28;19959;-85
2022/01/15 10:45:21;;;;;;;;;;;;;;;1.26;nan;101833.13;5026330;28;20393;-86
2022/01/15 10:47:49;;;;;;;;;;;;;;;1.39;nan;101827.41;5032285;28;20004;-86
2022/01/15 10:50:34;;;;;;;;;;;;;;;1.46;nan;101832.31;5024353;28;20364;-86
2022/01/15 10:53:11;;;;;;;;;;;;;;;1.59;nan;101829.22;5028921;28;20472;-87
2022/01/15 10:55:37;;;;;;;;;;;;;;;1.67;nan;101824.56;5021036;28;19998;-86
2022/01/15 10:58:07;;;;;;;;;;;;;;;1.66;nan;101821.06;5016768;28;19968;-87
2022/01/15 11:00:35;;;;;;;;;;;;;;;1.62;nan;101814.31;5037029;28;19928;-87
2022/01/15 11:03:02;;;;;;;;;;;;;;;1.63;nan;101802.97;5042854;28;19921;-87
2022/01/15 11:05:33;;;;;;;;;;;;;;;1.67;nan;101808.91;5039071;28;19929;-86
2022/01/15 11:08:11;;;;;;;;;;;;;;;1.79;nan;101804.91;5037588;28;19925;-86
2022/01/15 11:10:37;;;;;;;;;;;;;;;1.92;nan;101796.53;5036460;28;19963;-87
2022/01/15 11:13:06;;;;;;;;;;;;;;;2.08;nan;101794.13;5040657;28;20020;-87
2022/01/15 11:15:31;;;;;;;;;;;;;;;2.18;nan;101793.72;5039509;28;19921;-87
2022/01/15 11:17:57;;;;;;;;;;;;;;;2.11;nan;101791.38;5039865;28;19932;-86
2022/01/15 11:20:23;;;;;;;;;;;;;;;2.09;nan;101797.56;5029292;28;19928;-87
2022/01/15 11:22:48;;;;;;;;;;;;;;;2.22;nan;101796.13;5034833;28;19921;-86
2022/01/15 11:25:13;;;;;;;;;;;;;;;2.39;nan;101795.41;5039908;28;19921;-86
2022/01/15 11:27:39;;;;;;;;;;;;;;;2.44;nan;101793.41;5040804;28;19972;-87
2022/01/15 11:30:05;;;;;;;;;;;;;;;2.50;nan;101787.06;5035980;28;19921;-87
2022/01/15 11:32:30;;;;;;;;;;;;;;;2.55;nan;101793.81;5021584;28;19928;-87
2022/01/15 11:35:07;;;;;;;;;;;;;;;2.64;nan;101783.84;5030445;28;20143;-87
2022/01/15 11:37:54;;;;;;;;;;;;;;;2.60;nan;101775.31;5038643;28;19921;-86
2022/01/15 11:40:36;;;;;;;;;;;;;;;2.70;nan;101768.75;5031248;28;19928;-87
2022/01/15 11:43:20;;;;;;;;;;;;;;;2.70;nan;101773.13;5041237;28;19917;-87
2022/01/15 11:45:45;;;;;;;;;;;;;;;2.70;nan;101767.91;5041693;28;19944;-87
2022/01/15 11:48:20;;;;;;;;;;;;;;;2.61;nan;101763.94;5040779;28;19969;-86
2022/01/15 11:51:06;;;;;;;;;;;;;;;2.59;nan;101757.09;5035040;28;20016;-86
2022/01/15 11:53:44;;;;;;;;;;;;;;;2.73;nan;101752.09;5038714;28;19961;-87
2022/01/15 11:56:21;;;;;;;;;;;;;;;2.76;nan;101751.94;5045554;28;19936;-87
2022/01/15 11:58:46;;;;;;;;;;;;;;;2.76;nan;101742.34;5036337;28;20449;-87
2022/01/15 12:01:30;;;;;;;;;;;;;;;2.74;nan;101736.34;5031993;28;19921;-87
2022/01/15 12:04:14;;;;;;;;;;;;;;;2.81;nan;101736.88;5025716;28;19921;-87
2022/01/15 12:06:58;;;;;;;;;;;;;;;2.93;nan;101728.50;5039915;28;19948;-87
2022/01/15 12:09:38;;;;;;;;;;;;;;;2.97;nan;101729.19;5039217;28;19928;-87
2022/01/15 12:12:34;;;;;;;;;;;;;;;3.09;nan;101723.38;5038883;28;19921;-87
2022/01/15 12:15:00;;;;;;;;;;;;;;;3.05;nan;101726.19;5033256;28;20004;-87
2022/01/15 12:17:46;;;;;;;;;;;;;;;3.03;nan;101723.69;5043105;28;19936;-87
2022/01/15 12:20:18;;;;;;;;;;;;;;;3.14;nan;101715.31;5042689;28;20691;-87
2022/01/15 12:22:53;;;;;;;;;;;;;;;3.16;nan;101716.91;5038807;28;19922;-87
2022/01/15 12:25:19;;;;;;;;;;;;;;;3.26;nan;101713.88;5046659;28;19921;-86
2022/01/15 12:27:55;;;;;;;;;;;;;;;3.21;nan;101708.84;5049144;28;19921;-87
2022/01/15 12:30:22;;;;;;;;;;;;;;;3.13;nan;101709.25;5039759;28;20008;-87
2022/01/15 12:32:49;;;;;;;;;;;;;;;3.23;nan;101700.94;5044369;28;19929;-86
2022/01/15 12:35:22;;;;;;;;;;;;;;;3.16;nan;101709.09;5041065;28;20387;-85
2022/01/15 12:38:07;;;;;;;;;;;;;;;3.34;nan;101714.34;5042236;28;19918;-85
2022/01/15 12:40:39;;;;;;;;;;;;;;;3.15;nan;101701.34;5042970;28;19928;-86
2022/01/15 12:43:16;;;;;;;;;;;;;;;3.00;nan;101700.28;5038426;28;19921;-86
2022/01/15 12:45:41;;;;;;;;;;;;;;;2.97;nan;101703.91;5033879;28;19921;-86
2022/01/15 12:48:09;;;;;;;;;;;;;;;2.94;nan;101701.44;5038312;28;20029;-86
2022/01/15 12:50:50;;;;;;;;;;;;;;;2.81;nan;101697.72;5038836;28;19920;-85
2022/01/15 12:53:15;;;;;;;;;;;;;;;2.81;nan;101695.09;5038679;28;19928;-86
2022/01/15 12:55:40;;;;;;;;;;;;;;;3.03;nan;101686.22;5037164;28;19984;-85
2022/01/15 12:58:07;;;;;;;;;;;;;;;3.01;nan;101680.25;5038309;28;20381;-86
2022/01/15 13:00:34;;;;;;;;;;;;;;;2.86;nan;101681.81;5038530;28;20379;-86
2022/01/15 13:03:06;;;;;;;;;;;;;;;2.75;nan;101675.34;5039426;28;19929;-86
2022/01/15 13:05:32;;;;;;;;;;;;;;;2.84;nan;101670.63;5039967;28;19917;-86
2022/01/15 13:07:58;;;;;;;;;;;;;;;2.82;nan;101667.25;5036993;28;19917;-86
2022/01/15 13:10:47;;;;;;;;;;;;;;;2.89;nan;101659.03;5034480;28;20011;-85
2022/01/15 13:13:14;;;;;;;;;;;;;;;2.85;nan;101659.25;5033772;28;19961;-86
2022/01/15 13:15:39;;;;;;;;;;;;;;;2.94;nan;101657.03;5038115;28;19921;-86